createdAt,value
2018-03-31T00:00:35.669Z,9.41
2018-03-31T00:01:35.577Z,9.36
2018-03-31T00:03:28.436Z,9.47
2018-03-31T00:04:28.404Z,9.41
2018-03-31T00:06:21.254Z,9.41
2018-03-31T00:07:21.230Z,9.51
2018-03-31T00:09:14.098Z,9.50
2018-03-31T00:10:14.063Z,9.68
2018-03-31T00:12:06.909Z,9.73
2018-03-31T00:13:06.890Z,9.66
2018-03-31T00:14:59.749Z,9.62
2018-03-31T00:15:59.716Z,9.55
2018-03-31T00:17:52.566Z,9.48
2018-03-31T00:18:52.544Z,9.39
2018-03-31T00:20:45.405Z,9.44
2018-03-31T00:21:45.370Z,9.50
2018-03-31T00:23:38.219Z,9.50
2018-03-31T00:24:38.198Z,9.59
2018-03-31T00:26:31.063Z,9.64
2018-03-31T00:27:31.027Z,9.65
2018-03-31T00:29:23.877Z,9.76
2018-03-31T00:30:23.858Z,9.74
2018-03-31T00:32:16.716Z,9.83
2018-03-31T00:33:16.686Z,9.86
2018-03-31T00:35:09.531Z,10.04
2018-03-31T00:36:09.509Z,10.01
2018-03-31T00:38:02.370Z,10.19
2018-03-31T00:39:02.345Z,10.19
2018-03-31T00:40:55.193Z,10.17
2018-03-31T00:41:55.176Z,10.07
2018-03-31T00:43:48.039Z,10.02
2018-03-31T00:44:48.006Z,10.13
2018-03-31T00:46:40.852Z,10.17
2018-03-31T00:47:40.830Z,10.20
2018-03-31T00:49:33.695Z,10.26
2018-03-31T00:50:33.664Z,10.30
2018-03-31T00:52:26.513Z,10.26
2018-03-31T00:53:26.489Z,10.26
2018-03-31T00:55:19.350Z,10.02
2018-03-31T00:56:19.319Z,9.98
2018-03-31T00:58:12.165Z,10.04
2018-03-31T00:59:12.145Z,10.15
2018-03-31T01:01:05.007Z,10.02
2018-03-31T01:02:04.973Z,10.02
2018-03-31T01:03:57.820Z,10.10
2018-03-31T01:04:57.801Z,10.04
2018-03-31T01:06:50.659Z,9.99
2018-03-31T01:07:50.627Z,9.95
2018-03-31T01:09:43.475Z,9.98
2018-03-31T01:10:43.456Z,9.89
2018-03-31T01:12:36.316Z,10.01
2018-03-31T01:13:36.289Z,9.99
2018-03-31T01:15:29.133Z,10.04
2018-03-31T01:16:29.110Z,10.01
2018-03-31T01:18:21.970Z,9.86
2018-03-31T01:19:21.963Z,9.76
2018-03-31T01:21:14.786Z,9.74
2018-03-31T01:22:14.770Z,9.62
2018-03-31T01:24:07.632Z,9.76
2018-03-31T01:25:07.594Z,9.65
2018-03-31T01:27:00.440Z,9.83
2018-03-31T01:28:00.422Z,9.94
2018-03-31T01:29:53.286Z,9.73
2018-03-31T01:30:53.252Z,9.86
2018-03-31T01:32:46.101Z,9.55
2018-03-31T01:33:46.078Z,9.56
2018-03-31T01:35:38.942Z,9.54
2018-03-31T01:36:38.908Z,9.66
2018-03-31T01:38:31.758Z,9.54
2018-03-31T01:39:31.736Z,9.58
2018-03-31T01:41:24.612Z,9.51
2018-03-31T01:42:24.569Z,9.50
2018-03-31T01:44:17.416Z,9.56
2018-03-31T01:45:17.395Z,9.56
2018-03-31T01:47:10.259Z,9.58
2018-03-31T01:48:10.224Z,9.37
2018-03-31T01:50:03.091Z,9.48
2018-03-31T01:51:03.069Z,9.58
2018-03-31T01:52:55.928Z,9.44
2018-03-31T01:53:55.898Z,9.44
2018-03-31T01:55:48.744Z,9.44
2018-03-31T01:56:48.724Z,9.41
2018-03-31T01:58:41.585Z,9.56
2018-03-31T01:59:41.569Z,9.44
2018-03-31T02:01:34.894Z,9.36
2018-03-31T02:02:34.872Z,9.26
2018-03-31T02:04:27.738Z,9.36
2018-03-31T02:05:27.703Z,9.36
2018-03-31T02:07:21.053Z,9.31
2018-03-31T02:08:21.032Z,9.32
2018-03-31T02:10:13.889Z,9.14
2018-03-31T02:11:13.857Z,9.11
2018-03-31T02:13:06.705Z,9.02
2018-03-31T02:14:06.691Z,9.03
2018-03-31T02:15:59.557Z,9.02
2018-03-31T02:16:59.524Z,9.11
2018-03-31T02:18:52.371Z,9.06
2018-03-31T02:19:52.350Z,9.21
2018-03-31T02:21:45.214Z,9.13
2018-03-31T02:22:45.185Z,8.94
2018-03-31T02:24:38.526Z,9.22
2018-03-31T02:25:38.501Z,9.34
2018-03-31T02:27:31.359Z,9.08
2018-03-31T02:28:31.325Z,9.14
2018-03-31T02:30:24.179Z,9.22
2018-03-31T02:31:24.154Z,9.18
2018-03-31T02:33:17.012Z,9.23
2018-03-31T02:34:16.982Z,9.26
2018-03-31T02:36:09.862Z,9.25
2018-03-31T02:37:09.807Z,9.28
2018-03-31T02:39:02.676Z,9.21
2018-03-31T02:40:02.641Z,9.28
2018-03-31T02:41:55.489Z,9.37
2018-03-31T02:42:55.467Z,9.43
2018-03-31T02:44:48.330Z,9.39
2018-03-31T02:45:48.297Z,9.32
2018-03-31T02:47:41.144Z,9.40
2018-03-31T02:48:41.126Z,9.31
2018-03-31T02:50:33.983Z,9.29
2018-03-31T02:51:33.952Z,9.32
2018-03-31T02:53:26.800Z,9.32
2018-03-31T02:54:26.778Z,9.32
2018-03-31T02:56:19.636Z,9.37
2018-03-31T02:57:19.610Z,9.40
2018-03-31T02:59:12.456Z,9.58
2018-03-31T03:00:12.438Z,9.46
2018-03-31T03:02:05.296Z,9.43
2018-03-31T03:03:05.263Z,9.41
2018-03-31T03:04:58.108Z,9.43
2018-03-31T03:05:58.092Z,9.18
2018-03-31T03:07:50.950Z,9.23
2018-03-31T03:08:50.914Z,9.14
2018-03-31T03:10:44.260Z,9.08
2018-03-31T03:11:44.234Z,9.11
2018-03-31T03:13:37.094Z,9.10
2018-03-31T03:14:37.062Z,9.06
2018-03-31T03:16:29.910Z,9.19
2018-03-31T03:17:29.917Z,9.14
2018-03-31T03:19:22.746Z,9.14
2018-03-31T03:20:22.715Z,9.21
2018-03-31T03:22:15.563Z,9.14
2018-03-31T03:23:15.541Z,9.00
2018-03-31T03:25:08.401Z,8.97
2018-03-31T03:26:08.365Z,9.19
2018-03-31T03:28:01.708Z,9.18
2018-03-31T03:29:01.686Z,9.23
2018-03-31T03:30:54.548Z,9.21
2018-03-31T03:31:54.514Z,9.26
2018-03-31T03:33:47.362Z,9.26
2018-03-31T03:34:47.342Z,9.41
2018-03-31T03:36:40.199Z,9.41
2018-03-31T03:37:40.169Z,9.47
2018-03-31T03:39:33.016Z,9.26
2018-03-31T03:40:32.995Z,9.26
2018-03-31T03:42:25.853Z,9.26
2018-03-31T03:43:25.821Z,9.18
2018-03-31T03:45:18.670Z,9.19
2018-03-31T03:46:18.648Z,9.22
2018-03-31T03:48:11.509Z,9.08
2018-03-31T03:49:11.474Z,9.10
2018-03-31T03:51:04.326Z,9.21
2018-03-31T03:52:04.304Z,9.23
2018-03-31T03:53:57.164Z,9.22
2018-03-31T03:54:57.131Z,9.22
2018-03-31T03:56:50.010Z,9.29
2018-03-31T03:57:49.994Z,9.10
2018-03-31T03:59:42.848Z,9.16
2018-03-31T04:00:42.816Z,9.29
2018-03-31T04:02:35.662Z,9.32
2018-03-31T04:03:35.651Z,9.25
2018-03-31T04:05:28.501Z,9.28
2018-03-31T04:06:28.468Z,9.23
2018-03-31T04:08:21.316Z,9.22
2018-03-31T04:09:21.294Z,9.14
2018-03-31T04:11:14.153Z,9.02
2018-03-31T04:12:14.123Z,8.97
2018-03-31T04:14:07.475Z,8.82
2018-03-31T04:15:07.453Z,8.78
2018-03-31T04:17:00.867Z,8.69
2018-03-31T04:18:00.835Z,8.70
2018-03-31T04:19:53.749Z,8.70
2018-03-31T04:20:53.732Z,8.88
2018-03-31T04:22:46.588Z,9.08
2018-03-31T04:23:46.551Z,8.95
2018-03-31T04:25:39.401Z,9.03
2018-03-31T04:26:39.378Z,9.06
2018-03-31T04:28:32.242Z,9.10
2018-03-31T04:29:32.224Z,8.95
2018-03-31T04:31:25.052Z,8.95
2018-03-31T04:32:25.029Z,9.11
2018-03-31T04:34:17.892Z,8.97
2018-03-31T04:35:17.858Z,8.92
2018-03-31T04:37:10.716Z,8.89
2018-03-31T04:38:10.687Z,8.70
2018-03-31T04:40:03.546Z,8.85
2018-03-31T04:41:03.526Z,8.87
2018-03-31T04:42:56.854Z,8.87
2018-03-31T04:43:56.831Z,8.99
2018-03-31T04:45:49.693Z,8.84
2018-03-31T04:46:49.656Z,8.99
2018-03-31T04:48:42.504Z,8.87
2018-03-31T04:49:42.483Z,8.94
2018-03-31T04:51:35.342Z,9.06
2018-03-31T04:52:35.364Z,8.91
2018-03-31T04:54:28.154Z,8.92
2018-03-31T04:55:28.135Z,8.87
2018-03-31T04:57:20.997Z,8.81
2018-03-31T04:58:20.958Z,8.85
2018-03-31T05:00:13.813Z,8.88
2018-03-31T05:01:13.791Z,8.87
2018-03-31T05:03:06.656Z,8.85
2018-03-31T05:04:06.618Z,8.88
2018-03-31T05:05:59.465Z,8.94
2018-03-31T05:06:59.444Z,8.69
2018-03-31T05:08:52.302Z,8.67
2018-03-31T05:09:52.270Z,8.69
2018-03-31T05:11:45.116Z,8.56
2018-03-31T05:12:45.095Z,8.58
2018-03-31T05:14:37.954Z,8.58
2018-03-31T05:15:37.920Z,8.60
2018-03-31T05:17:30.774Z,8.84
2018-03-31T05:18:30.752Z,8.88
2018-03-31T05:20:23.614Z,8.84
2018-03-31T05:21:23.579Z,9.00
2018-03-31T05:23:16.429Z,8.89
2018-03-31T05:24:16.425Z,8.82
2018-03-31T05:26:09.268Z,8.76
2018-03-31T05:27:09.233Z,8.73
2018-03-31T05:29:02.080Z,8.69
2018-03-31T05:30:02.060Z,8.78
2018-03-31T05:31:54.917Z,8.73
2018-03-31T05:32:54.882Z,8.66
2018-03-31T05:34:47.735Z,8.70
2018-03-31T05:35:47.712Z,8.81
2018-03-31T05:37:40.570Z,8.71
2018-03-31T05:38:40.536Z,8.78
2018-03-31T05:40:33.385Z,8.91
2018-03-31T05:41:33.362Z,8.94
2018-03-31T05:43:26.225Z,8.89
2018-03-31T05:44:26.186Z,8.87
2018-03-31T05:46:19.036Z,8.84
2018-03-31T05:47:19.013Z,8.88
2018-03-31T05:49:11.876Z,8.71
2018-03-31T05:50:11.841Z,8.74
2018-03-31T05:52:04.688Z,8.66
2018-03-31T05:53:04.672Z,8.76
2018-03-31T05:54:58.030Z,8.71
2018-03-31T05:55:57.998Z,8.82
2018-03-31T05:57:50.844Z,8.87
2018-03-31T05:58:50.825Z,8.71
2018-03-31T06:00:43.714Z,8.69
2018-03-31T06:01:43.686Z,8.69
2018-03-31T06:03:36.583Z,8.69
2018-03-31T06:04:36.514Z,8.73
2018-03-31T06:06:29.384Z,8.88
2018-03-31T06:07:29.352Z,8.88
2018-03-31T06:09:22.231Z,8.95
2018-03-31T06:10:22.176Z,8.99
2018-03-31T06:12:15.064Z,8.95
2018-03-31T06:13:15.029Z,9.00
2018-03-31T06:15:07.876Z,8.95
2018-03-31T06:16:07.854Z,8.88
2018-03-31T06:18:00.712Z,8.99
2018-03-31T06:19:00.686Z,9.04
2018-03-31T06:20:53.528Z,9.00
2018-03-31T06:21:53.505Z,8.99
2018-03-31T06:23:46.367Z,9.06
2018-03-31T06:24:46.338Z,8.97
2018-03-31T06:26:39.179Z,9.00
2018-03-31T06:27:39.165Z,9.02
2018-03-31T06:29:32.016Z,9.03
2018-03-31T06:30:31.993Z,9.14
2018-03-31T06:32:24.865Z,9.03
2018-03-31T06:33:24.847Z,9.14
2018-03-31T06:35:17.723Z,9.04
2018-03-31T06:36:17.688Z,8.97
2018-03-31T06:38:10.536Z,9.02
2018-03-31T06:39:10.515Z,9.03
2018-03-31T06:41:03.373Z,9.00
2018-03-31T06:42:03.340Z,9.21
2018-03-31T06:43:56.190Z,9.03
2018-03-31T06:44:56.167Z,9.13
2018-03-31T06:46:49.032Z,9.43
2018-03-31T06:47:48.995Z,9.37
2018-03-31T06:49:41.843Z,9.29
2018-03-31T06:50:41.821Z,9.32
2018-03-31T06:52:34.683Z,9.22
2018-03-31T06:53:34.645Z,9.08
2018-03-31T06:55:27.511Z,9.16
2018-03-31T06:56:27.475Z,9.19
2018-03-31T06:58:20.948Z,9.31
2018-03-31T06:59:21.053Z,9.31
2018-03-31T07:01:13.666Z,9.41
2018-03-31T07:02:13.695Z,9.43
2018-03-31T07:04:06.496Z,9.43
2018-03-31T07:05:06.461Z,9.47
2018-03-31T07:06:59.309Z,9.39
2018-03-31T07:07:59.286Z,9.51
2018-03-31T07:09:52.145Z,9.19
2018-03-31T07:10:52.113Z,9.02
2018-03-31T07:12:45.455Z,9.02
2018-03-31T07:13:45.433Z,9.16
2018-03-31T07:15:38.292Z,9.32
2018-03-31T07:16:38.259Z,9.29
2018-03-31T07:18:31.105Z,9.36
2018-03-31T07:19:31.084Z,9.51
2018-03-31T07:21:23.944Z,9.51
2018-03-31T07:22:23.912Z,9.54
2018-03-31T07:24:17.253Z,9.69
2018-03-31T07:25:17.233Z,9.64
2018-03-31T07:27:10.584Z,9.66
2018-03-31T07:28:10.552Z,9.73
2018-03-31T07:30:03.400Z,9.54
2018-03-31T07:31:03.381Z,9.61
2018-03-31T07:32:56.240Z,9.58
2018-03-31T07:33:56.206Z,9.50
2018-03-31T07:35:49.056Z,9.59
2018-03-31T07:36:49.035Z,9.65
2018-03-31T07:38:41.896Z,9.92
2018-03-31T07:39:41.861Z,9.87
2018-03-31T07:41:34.711Z,10.15
2018-03-31T07:42:34.689Z,10.10
2018-03-31T07:44:27.552Z,10.17
2018-03-31T07:45:27.521Z,10.17
2018-03-31T07:47:20.364Z,10.04
2018-03-31T07:48:20.343Z,10.04
2018-03-31T07:50:13.206Z,10.04
2018-03-31T07:51:13.172Z,10.16
2018-03-31T07:53:06.517Z,10.22
2018-03-31T07:54:06.497Z,10.17
2018-03-31T07:55:59.855Z,10.26
2018-03-31T07:56:59.822Z,10.20
2018-03-31T07:58:53.172Z,10.04
2018-03-31T07:59:53.144Z,10.04
2018-03-31T08:01:46.515Z,10.13
2018-03-31T08:02:46.470Z,10.15
2018-03-31T08:04:39.814Z,10.23
2018-03-31T08:05:39.796Z,10.26
2018-03-31T08:07:32.652Z,10.35
2018-03-31T08:08:32.621Z,10.38
2018-03-31T08:10:25.969Z,10.67
2018-03-31T08:11:25.943Z,10.81
2018-03-31T08:13:18.811Z,10.74
2018-03-31T08:14:18.774Z,10.67
2018-03-31T08:16:12.118Z,10.69
2018-03-31T08:17:12.093Z,10.67
2018-03-31T08:19:05.480Z,10.64
2018-03-31T08:20:05.429Z,10.54
2018-03-31T08:21:58.280Z,10.92
2018-03-31T08:22:58.258Z,10.92
2018-03-31T08:24:51.200Z,10.89
2018-03-31T08:25:51.096Z,10.74
2018-03-31T08:27:44.432Z,10.78
2018-03-31T08:28:44.409Z,10.89
2018-03-31T08:30:37.268Z,10.97
2018-03-31T08:31:37.238Z,10.94
2018-03-31T08:33:30.583Z,10.87
2018-03-31T08:34:30.564Z,10.74
2018-03-31T08:36:23.920Z,10.87
2018-03-31T08:37:23.884Z,10.86
2018-03-31T08:39:17.235Z,10.96
2018-03-31T08:40:17.209Z,11.12
2018-03-31T08:42:10.565Z,11.26
2018-03-31T08:43:10.564Z,11.27
2018-03-31T08:45:03.896Z,11.43
2018-03-31T08:46:03.872Z,11.37
2018-03-31T08:47:56.745Z,11.25
2018-03-31T08:48:56.705Z,11.17
2018-03-31T08:50:49.552Z,11.12
2018-03-31T08:51:49.532Z,11.11
2018-03-31T08:53:42.397Z,11.23
2018-03-31T08:54:42.363Z,11.27
2018-03-31T08:56:35.219Z,11.23
2018-03-31T08:57:35.196Z,11.25
2018-03-31T08:59:28.060Z,11.25
2018-03-31T09:00:28.024Z,11.40
2018-03-31T09:02:20.910Z,11.63
2018-03-31T09:03:20.864Z,11.78
2018-03-31T09:05:13.739Z,11.77
2018-03-31T09:06:13.712Z,11.66
2018-03-31T09:08:06.556Z,11.87
2018-03-31T09:09:06.586Z,11.75
2018-03-31T09:10:59.403Z,11.68
2018-03-31T09:11:59.373Z,11.95
2018-03-31T09:13:52.257Z,11.73
2018-03-31T09:14:52.241Z,11.50
2018-03-31T09:16:45.138Z,11.78
2018-03-31T09:17:45.074Z,11.80
2018-03-31T09:19:38.421Z,11.72
2018-03-31T09:20:38.395Z,11.69
2018-03-31T09:22:31.262Z,11.91
2018-03-31T09:23:31.228Z,12.02
2018-03-31T09:25:24.580Z,12.17
2018-03-31T09:26:24.560Z,12.28
2018-03-31T09:28:17.954Z,12.29
2018-03-31T09:29:17.921Z,12.45
2018-03-31T09:31:10.774Z,12.65
2018-03-31T09:32:10.754Z,12.68
2018-03-31T09:34:04.113Z,12.47
2018-03-31T09:35:04.082Z,12.43
2018-03-31T09:36:57.436Z,12.60
2018-03-31T09:37:57.418Z,12.54
2018-03-31T09:39:50.772Z,12.97
2018-03-31T09:40:50.747Z,13.09
2018-03-31T09:42:44.097Z,13.31
2018-03-31T09:43:44.078Z,13.37
2018-03-31T09:45:37.447Z,13.31
2018-03-31T09:46:37.448Z,13.25
2018-03-31T09:48:30.766Z,13.35
2018-03-31T09:49:30.746Z,13.28
2018-03-31T09:51:24.116Z,13.47
2018-03-31T09:52:24.080Z,13.28
2018-03-31T09:54:17.460Z,12.97
2018-03-31T09:55:17.442Z,13.04
2018-03-31T09:57:10.308Z,13.18
2018-03-31T09:58:10.274Z,13.03
2018-03-31T10:00:03.626Z,13.00
2018-03-31T10:01:03.603Z,12.93
2018-03-31T10:02:56.966Z,12.73
2018-03-31T10:03:56.935Z,12.57
2018-03-31T10:05:50.291Z,12.94
2018-03-31T10:06:50.269Z,13.31
2018-03-31T10:08:43.631Z,13.16
2018-03-31T10:09:43.602Z,12.97
2018-03-31T10:11:36.462Z,12.97
2018-03-31T10:12:36.437Z,13.12
2018-03-31T10:14:29.813Z,13.11
2018-03-31T10:15:29.783Z,13.23
2018-03-31T10:17:23.135Z,12.80
2018-03-31T10:18:23.110Z,12.72
2018-03-31T10:20:16.486Z,13.19
2018-03-31T10:21:16.451Z,13.46
2018-03-31T10:23:09.797Z,13.71
2018-03-31T10:24:09.783Z,13.75
2018-03-31T10:26:03.176Z,13.90
2018-03-31T10:27:03.135Z,13.75
2018-03-31T10:28:56.474Z,13.70
2018-03-31T10:29:56.459Z,13.60
2018-03-31T10:31:49.836Z,13.53
2018-03-31T10:32:49.796Z,13.38
2018-03-31T10:34:43.153Z,13.31
2018-03-31T10:35:43.133Z,13.23
2018-03-31T10:37:36.504Z,13.25
2018-03-31T10:38:36.476Z,13.33
2018-03-31T10:40:29.337Z,13.92
2018-03-31T10:41:29.330Z,13.74
2018-03-31T10:43:22.684Z,13.65
2018-03-31T10:44:22.646Z,13.54
2018-03-31T10:46:16.007Z,13.87
2018-03-31T10:47:15.986Z,14.05
2018-03-31T10:49:09.369Z,14.32
2018-03-31T10:50:09.342Z,14.37
2018-03-31T10:52:02.710Z,13.99
2018-03-31T10:53:02.704Z,13.65
2018-03-31T10:54:56.068Z,13.47
2018-03-31T10:55:56.039Z,13.53
2018-03-31T10:57:48.892Z,13.70
2018-03-31T10:58:48.878Z,13.89
2018-03-31T11:00:42.238Z,13.90
2018-03-31T11:01:42.204Z,13.99
2018-03-31T11:03:35.075Z,13.77
2018-03-31T11:04:35.052Z,13.77
2018-03-31T11:06:27.917Z,13.75
2018-03-31T11:07:27.885Z,13.67
2018-03-31T11:09:21.231Z,13.72
2018-03-31T11:10:21.211Z,13.62
2018-03-31T11:12:14.088Z,14.25
2018-03-31T11:13:14.053Z,14.32
2018-03-31T11:15:06.910Z,14.62
2018-03-31T11:16:06.923Z,14.78
2018-03-31T11:18:00.255Z,14.66
2018-03-31T11:19:00.225Z,14.55
2018-03-31T11:20:53.083Z,14.63
2018-03-31T11:21:53.062Z,14.66
2018-03-31T11:23:45.931Z,14.63
2018-03-31T11:24:45.900Z,14.84
2018-03-31T11:26:38.832Z,15.02
2018-03-31T11:27:38.739Z,15.14
2018-03-31T11:29:31.612Z,15.25
2018-03-31T11:30:31.575Z,15.19
2018-03-31T11:32:24.432Z,15.17
2018-03-31T11:33:24.413Z,15.44
2018-03-31T11:35:17.284Z,15.88
2018-03-31T11:36:17.258Z,15.92
2018-03-31T11:38:10.115Z,15.51
2018-03-31T11:39:10.090Z,14.78
2018-03-31T11:41:02.964Z,15.10
2018-03-31T11:42:02.942Z,15.03
2018-03-31T11:43:55.793Z,15.35
2018-03-31T11:44:55.776Z,15.46
2018-03-31T11:46:48.648Z,15.51
2018-03-31T11:47:48.617Z,15.04
2018-03-31T11:49:41.476Z,15.47
2018-03-31T11:50:41.459Z,15.86
2018-03-31T11:52:34.326Z,16.39
2018-03-31T11:53:34.300Z,16.24
2018-03-31T11:55:27.157Z,16.56
2018-03-31T11:56:27.136Z,16.54
2018-03-31T11:58:20.013Z,15.92
2018-03-31T11:59:19.986Z,15.79
2018-03-31T12:01:13.843Z,15.82
2018-03-31T12:02:13.829Z,15.72
2018-03-31T12:04:06.697Z,16.12
2018-03-31T12:05:06.670Z,16.29
2018-03-31T12:06:59.535Z,16.57
2018-03-31T12:07:59.516Z,16.72
2018-03-31T12:09:52.405Z,16.96
2018-03-31T12:10:52.362Z,17.29
2018-03-31T12:12:45.237Z,17.45
2018-03-31T12:13:45.219Z,17.70
2018-03-31T12:15:38.089Z,17.63
2018-03-31T12:16:38.061Z,17.97
2018-03-31T12:18:30.922Z,17.85
2018-03-31T12:19:30.909Z,18.15
2018-03-31T12:21:23.796Z,17.92
2018-03-31T12:22:23.754Z,17.86
2018-03-31T12:24:16.631Z,17.56
2018-03-31T12:25:16.622Z,16.99
2018-03-31T12:27:09.525Z,16.99
2018-03-31T12:28:09.473Z,17.34
2018-03-31T12:30:02.337Z,16.97
2018-03-31T12:31:02.333Z,16.68
2018-03-31T12:32:55.201Z,16.76
2018-03-31T12:33:55.174Z,16.69
2018-03-31T12:35:48.050Z,16.90
2018-03-31T12:36:48.034Z,17.05
2018-03-31T12:38:40.926Z,17.01
2018-03-31T12:39:40.895Z,16.99
2018-03-31T12:41:33.770Z,17.22
2018-03-31T12:42:33.753Z,17.38
2018-03-31T12:44:26.632Z,17.16
2018-03-31T12:45:26.604Z,16.91
2018-03-31T12:47:19.470Z,17.11
2018-03-31T12:48:19.454Z,17.04
2018-03-31T12:50:12.329Z,16.71
2018-03-31T12:51:12.307Z,16.38
2018-03-31T12:53:05.169Z,16.04
2018-03-31T12:54:05.152Z,16.61
2018-03-31T12:55:58.026Z,16.54
2018-03-31T12:56:58.001Z,16.54
2018-03-31T12:58:50.862Z,17.36
2018-03-31T12:59:50.849Z,17.59
2018-03-31T13:01:43.723Z,16.91
2018-03-31T13:02:43.695Z,16.75
2018-03-31T13:04:36.557Z,16.50
2018-03-31T13:05:36.542Z,16.33
2018-03-31T13:07:29.420Z,16.16
2018-03-31T13:08:29.388Z,15.79
2018-03-31T13:10:22.249Z,16.21
2018-03-31T13:11:22.237Z,16.16
2018-03-31T13:13:15.110Z,16.56
2018-03-31T13:14:15.083Z,16.79
2018-03-31T13:16:07.946Z,16.90
2018-03-31T13:17:07.930Z,16.81
2018-03-31T13:19:00.805Z,16.91
2018-03-31T13:20:00.779Z,17.12
2018-03-31T13:21:53.640Z,17.11
2018-03-31T13:22:53.672Z,17.16
2018-03-31T13:24:46.498Z,16.79
2018-03-31T13:25:46.473Z,16.97
2018-03-31T13:27:39.336Z,17.63
2018-03-31T13:28:39.318Z,17.39
2018-03-31T13:30:32.192Z,17.56
2018-03-31T13:31:32.165Z,17.71
2018-03-31T13:33:25.028Z,17.95
2018-03-31T13:34:25.032Z,18.08
2018-03-31T13:36:18.385Z,18.35
2018-03-31T13:37:18.356Z,18.44
2018-03-31T13:39:11.223Z,18.60
2018-03-31T13:40:11.204Z,19.12
2018-03-31T13:42:04.078Z,19.77
2018-03-31T13:43:04.053Z,19.95
2018-03-31T13:44:56.915Z,20.41
2018-03-31T13:45:56.903Z,20.72
2018-03-31T13:47:49.776Z,20.75
2018-03-31T13:48:49.755Z,20.78
2018-03-31T13:50:42.621Z,19.82
2018-03-31T13:51:42.602Z,19.85
2018-03-31T13:53:35.481Z,19.82
2018-03-31T13:54:35.457Z,20.11
2018-03-31T13:56:28.321Z,20.95
2018-03-31T13:57:28.315Z,19.56
2018-03-31T13:59:21.186Z,18.28
2018-03-31T14:00:21.162Z,18.38
2018-03-31T14:02:15.022Z,18.23
2018-03-31T14:03:15.007Z,18.71
2018-03-31T14:05:07.883Z,18.78
2018-03-31T14:06:07.857Z,19.49
2018-03-31T14:08:00.720Z,19.44
2018-03-31T14:09:00.708Z,19.44
2018-03-31T14:10:53.595Z,19.41
2018-03-31T14:11:53.572Z,19.44
2018-03-31T14:13:46.444Z,19.21
2018-03-31T14:14:46.431Z,18.59
2018-03-31T14:16:39.306Z,18.11
2018-03-31T14:17:39.282Z,17.83
2018-03-31T14:19:32.146Z,18.11
2018-03-31T14:20:32.135Z,17.92
2018-03-31T14:22:25.008Z,17.90
2018-03-31T14:23:24.983Z,17.68
2018-03-31T14:25:17.847Z,17.65
2018-03-31T14:26:17.835Z,18.00
2018-03-31T14:28:10.709Z,18.22
2018-03-31T14:29:10.681Z,18.68
2018-03-31T14:31:03.556Z,18.71
2018-03-31T14:32:03.539Z,18.66
2018-03-31T14:33:56.425Z,19.41
2018-03-31T14:34:56.387Z,20.67
2018-03-31T14:36:49.253Z,22.69
2018-03-31T14:37:49.240Z,22.30
2018-03-31T14:39:42.118Z,22.91
2018-03-31T14:40:42.092Z,23.56
2018-03-31T14:42:34.965Z,24.05
2018-03-31T14:43:34.951Z,23.59
2018-03-31T14:45:27.829Z,23.69
2018-03-31T14:46:27.804Z,23.69
2018-03-31T14:48:20.678Z,23.68
2018-03-31T14:49:20.666Z,23.86
2018-03-31T14:51:13.551Z,24.60
2018-03-31T14:52:13.525Z,24.66
2018-03-31T14:54:06.398Z,24.58
2018-03-31T14:55:06.390Z,24.63
2018-03-31T14:56:59.279Z,24.55
2018-03-31T14:57:59.252Z,24.60
2018-03-31T14:59:52.128Z,23.71
2018-03-31T15:00:52.120Z,23.10
2018-03-31T15:02:45.005Z,21.66
2018-03-31T15:03:44.986Z,22.00
2018-03-31T15:05:37.929Z,23.56
2018-03-31T15:06:37.853Z,23.88
2018-03-31T15:08:30.737Z,23.69
2018-03-31T15:09:30.717Z,23.77
2018-03-31T15:11:23.592Z,23.28
2018-03-31T15:12:23.585Z,24.29
2018-03-31T15:14:16.480Z,23.80
2018-03-31T15:15:16.453Z,23.81
2018-03-31T15:17:09.331Z,23.87
2018-03-31T15:18:09.322Z,23.73
2018-03-31T15:20:02.209Z,24.48
2018-03-31T15:21:02.192Z,24.10
2018-03-31T15:22:55.066Z,22.99
2018-03-31T15:23:55.057Z,22.98
2018-03-31T15:25:47.942Z,22.81
2018-03-31T15:26:47.922Z,22.36
2018-03-31T15:28:40.825Z,21.35
2018-03-31T15:29:40.789Z,20.63
2018-03-31T15:31:33.678Z,20.29
2018-03-31T15:32:33.658Z,20.21
2018-03-31T15:34:26.529Z,20.21
2018-03-31T15:35:26.520Z,19.82
2018-03-31T15:37:19.406Z,19.76
2018-03-31T15:38:19.382Z,19.55
2018-03-31T15:40:12.318Z,19.34
2018-03-31T15:41:12.242Z,19.15
2018-03-31T15:43:05.123Z,19.73
2018-03-31T15:44:05.099Z,19.14
2018-03-31T15:45:57.971Z,19.49
2018-03-31T15:46:57.959Z,19.58
2018-03-31T15:48:50.840Z,20.04
2018-03-31T15:49:50.817Z,20.19
2018-03-31T15:51:43.684Z,20.29
2018-03-31T15:52:43.680Z,20.44
2018-03-31T15:54:36.554Z,20.44
2018-03-31T15:55:36.530Z,20.25
2018-03-31T15:57:29.397Z,19.94
2018-03-31T15:58:29.385Z,19.69
2018-03-31T16:00:22.263Z,19.67
2018-03-31T16:01:22.239Z,19.58
2018-03-31T16:03:15.107Z,19.56
2018-03-31T16:04:15.093Z,19.09
2018-03-31T16:06:07.971Z,19.92
2018-03-31T16:07:07.947Z,20.03
2018-03-31T16:09:00.821Z,19.73
2018-03-31T16:10:00.808Z,19.77
2018-03-31T16:11:53.684Z,20.14
2018-03-31T16:12:53.662Z,19.84
2018-03-31T16:14:46.525Z,20.36
2018-03-31T16:15:46.513Z,20.66
2018-03-31T16:17:39.392Z,20.92
2018-03-31T16:18:39.366Z,20.82
2018-03-31T16:20:32.231Z,20.26
2018-03-31T16:21:32.219Z,19.91
2018-03-31T16:23:25.099Z,19.70
2018-03-31T16:24:25.075Z,19.67
2018-03-31T16:26:17.937Z,19.55
2018-03-31T16:27:17.924Z,19.56
2018-03-31T16:29:10.825Z,19.58
2018-03-31T16:30:10.803Z,19.66
2018-03-31T16:32:03.667Z,19.70
2018-03-31T16:33:03.651Z,19.64
2018-03-31T16:34:56.525Z,19.77
2018-03-31T16:35:56.504Z,19.45
2018-03-31T16:37:49.371Z,19.04
2018-03-31T16:38:49.357Z,18.86
2018-03-31T16:40:42.234Z,18.80
2018-03-31T16:41:42.211Z,18.66
2018-03-31T16:43:35.087Z,18.93
2018-03-31T16:44:35.060Z,18.88
2018-03-31T16:46:27.937Z,18.98
2018-03-31T16:47:27.910Z,19.19
2018-03-31T16:49:20.776Z,19.44
2018-03-31T16:50:20.761Z,19.47
2018-03-31T16:52:13.689Z,19.40
2018-03-31T16:53:13.614Z,19.34
2018-03-31T16:55:06.472Z,19.11
2018-03-31T16:56:06.459Z,19.11
2018-03-31T16:57:59.333Z,18.96
2018-03-31T16:58:59.308Z,19.14
2018-03-31T17:00:52.172Z,19.27
2018-03-31T17:01:52.162Z,18.98
2018-03-31T17:03:45.035Z,18.83
2018-03-31T17:04:45.010Z,18.88
2018-03-31T17:06:37.874Z,18.40
2018-03-31T17:07:37.859Z,18.40
2018-03-31T17:09:30.731Z,18.53
2018-03-31T17:10:30.707Z,18.33
2018-03-31T17:12:23.568Z,17.92
2018-03-31T17:13:23.553Z,17.94
2018-03-31T17:15:16.426Z,17.98
2018-03-31T17:16:16.405Z,18.08
2018-03-31T17:18:09.263Z,18.00
2018-03-31T17:19:09.249Z,17.72
2018-03-31T17:21:02.121Z,17.65
2018-03-31T17:22:02.096Z,17.60
2018-03-31T17:23:54.959Z,17.78
2018-03-31T17:24:54.944Z,17.74
2018-03-31T17:26:47.826Z,17.79
2018-03-31T17:27:47.791Z,17.78
2018-03-31T17:29:41.145Z,17.48
2018-03-31T17:30:41.130Z,17.33
2018-03-31T17:32:34.004Z,17.20
2018-03-31T17:33:33.979Z,17.08
2018-03-31T17:35:26.840Z,17.34
2018-03-31T17:36:26.824Z,17.34
2018-03-31T17:38:19.701Z,16.75
2018-03-31T17:39:19.675Z,16.83
2018-03-31T17:41:12.535Z,16.89
2018-03-31T17:42:12.520Z,16.93
2018-03-31T17:44:05.395Z,16.56
2018-03-31T17:45:05.366Z,16.33
2018-03-31T17:46:58.226Z,16.32
2018-03-31T17:47:58.209Z,16.16
2018-03-31T17:49:51.085Z,15.77
2018-03-31T17:50:51.054Z,15.43
2018-03-31T17:52:43.913Z,15.25
2018-03-31T17:53:43.897Z,15.21
2018-03-31T17:55:36.765Z,15.18
2018-03-31T17:56:36.739Z,15.11
2018-03-31T17:58:29.600Z,15.11
2018-03-31T17:59:29.582Z,15.06
2018-03-31T18:01:22.454Z,15.06
2018-03-31T18:02:22.426Z,15.27
2018-03-31T18:04:15.287Z,15.15
2018-03-31T18:05:15.269Z,15.19
2018-03-31T18:07:08.143Z,15.07
2018-03-31T18:08:08.110Z,15.04
2018-03-31T18:10:00.967Z,15.15
2018-03-31T18:11:00.952Z,15.14
2018-03-31T18:12:53.818Z,15.10
2018-03-31T18:13:53.793Z,15.09
2018-03-31T18:15:46.653Z,15.00
2018-03-31T18:16:46.630Z,15.02
2018-03-31T18:18:39.499Z,14.99
2018-03-31T18:19:39.470Z,14.63
2018-03-31T18:21:32.328Z,14.35
2018-03-31T18:22:32.315Z,14.32
2018-03-31T18:24:25.182Z,14.59
2018-03-31T18:25:25.152Z,14.62
2018-03-31T18:27:18.012Z,14.79
2018-03-31T18:28:17.992Z,14.58
2018-03-31T18:30:10.865Z,14.48
2018-03-31T18:31:10.833Z,14.32
2018-03-31T18:33:03.691Z,14.44
2018-03-31T18:34:03.676Z,14.37
2018-03-31T18:35:56.542Z,14.40
2018-03-31T18:36:56.513Z,14.37
2018-03-31T18:38:49.376Z,14.29
2018-03-31T18:39:49.352Z,13.81
2018-03-31T18:41:42.218Z,13.71
2018-03-31T18:42:42.188Z,13.79
2018-03-31T18:44:35.048Z,13.86
2018-03-31T18:45:35.030Z,13.90
2018-03-31T18:47:27.900Z,13.95